Hector, New York
Current Conditions -  °F | °C
As of 10:19 AM on Wednesday 26 Nov 2014 (Local Time) from KPEO Reporting Station
Overcast Overcast  
Wind Chill: 34°   Ceiling: 2900
Heat Index: 34°   Visibility: 10mi
Dew Point: 23°   Wind: 3mph
Humidity: 64%   Direction: NA
Pressure: 30.14"   Gusts: NA
Location:  42.5°N, 76.87°W
Report Text: KPEO 261519Z AUTO VRB03KT 10SM OVC029 01/M05 A3014 RMK AO2 T00111050
Loading
Personal Weather Stations






























Interactive Weather Map New forecast layout! Learn more

10-Day Weather Forecast

Advertisements
Track Severe Weather on mobile